Time;durP1;ratioP1;P1;durP2;ratioP2;P2;SDS_P1;SDS_P2;PMS_P1;PMS_P2;Temp;Humidity;BMP_temperature;BMP_pressure;BME280_temperature;BME280_humidity;BME280_pressure;Samples;Min_cycle;Max_cycle;Signal;HPM_P1;HPM_P2
2022/08/07 00:02:14;;;;;;;5.30;1.83;;;24.00;99.90;;;;;;5003257;28;20038;-78
2022/08/07 00:04:44;;;;;;;3.92;1.48;;;23.90;99.90;;;;;;4999491;28;20093;-77
2022/08/07 00:07:11;;;;;;;7.10;1.98;;;23.90;99.90;;;;;;4996062;28;20123;-78
2022/08/07 00:09:38;;;;;;;4.22;2.15;;;23.80;99.90;;;;;;4995363;28;20058;-78
2022/08/07 00:12:06;;;;;;;6.32;1.65;;;23.80;99.90;;;;;;4978251;28;20141;-78
2022/08/07 00:14:33;;;;;;;2.90;1.60;;;23.80;99.90;;;;;;4996196;28;20043;-77
2022/08/07 00:17:02;;;;;;;3.75;1.80;;;23.70;99.90;;;;;;4996430;28;20042;-78
2022/08/07 00:19:30;;;;;;;3.55;1.70;;;23.70;99.90;;;;;;4996779;28;20047;-78
2022/08/07 00:21:58;;;;;;;6.68;1.85;;;23.70;99.90;;;;;;4996056;28;20081;-78
2022/08/07 00:24:26;;;;;;;5.93;1.83;;;23.70;99.90;;;;;;4996620;28;20065;-78
2022/08/07 00:26:53;;;;;;;3.63;1.70;;;23.60;99.90;;;;;;4995620;28;20100;-76
2022/08/07 00:29:24;;;;;;;2.47;1.50;;;23.60;99.90;;;;;;5005389;28;20096;-78
2022/08/07 00:31:53;;;;;;;6.07;1.70;;;23.60;99.90;;;;;;5021336;28;20042;-77
2022/08/07 00:34:20;;;;;;;2.78;1.70;;;23.60;99.90;;;;;;5002967;28;20100;-76
2022/08/07 00:36:48;;;;;;;3.38;1.83;;;23.60;99.90;;;;;;4990884;28;20047;-76
2022/08/07 00:39:18;;;;;;;4.80;1.83;;;23.50;99.90;;;;;;4987042;28;20421;-78
2022/08/07 00:41:50;;;;;;;3.90;1.88;;;23.40;99.90;;;;;;4998480;28;20039;-77
2022/08/07 00:44:17;;;;;;;6.30;2.15;;;23.30;99.90;;;;;;4998035;28;20047;-77
2022/08/07 00:46:44;;;;;;;4.38;2.38;;;23.20;99.90;;;;;;4980532;28;20477;-78
2022/08/07 00:49:13;;;;;;;4.78;1.70;;;23.20;99.90;;;;;;4997683;28;20045;-78
2022/08/07 00:51:40;;;;;;;5.45;1.83;;;23.20;99.90;;;;;;4997887;28;20596;-78
2022/08/07 00:54:08;;;;;;;6.45;2.05;;;23.20;99.90;;;;;;4997909;28;20046;-78
2022/08/07 00:56:37;;;;;;;6.93;1.70;;;23.10;99.90;;;;;;4980245;28;20068;-78
2022/08/07 00:59:05;;;;;;;6.47;2.05;;;23.00;99.90;;;;;;4980868;28;20054;-78
2022/08/07 01:01:34;;;;;;;2.50;1.70;;;23.00;99.90;;;;;;4997940;28;20050;-78
2022/08/07 01:04:05;;;;;;;3.97;1.90;;;22.90;99.90;;;;;;4979553;28;20054;-77
2022/08/07 01:06:33;;;;;;;2.80;1.63;;;22.90;99.90;;;;;;4997805;28;20117;-78
2022/08/07 01:09:01;;;;;;;4.38;1.80;;;22.90;99.90;;;;;;4980212;28;20054;-78
2022/08/07 01:11:29;;;;;;;2.75;1.83;;;22.90;99.90;;;;;;4998119;28;20070;-78
2022/08/07 01:13:58;;;;;;;6.05;2.50;;;22.90;99.90;;;;;;4980579;28;20498;-77
2022/08/07 01:16:26;;;;;;;4.30;1.95;;;22.90;99.90;;;;;;4979808;28;20137;-76
2022/08/07 01:18:54;;;;;;;5.05;2.28;;;22.90;99.90;;;;;;4980304;28;20433;-79
2022/08/07 01:21:24;;;;;;;3.65;1.80;;;22.80;99.90;;;;;;4980425;28;20142;-78
2022/08/07 01:23:56;;;;;;;4.07;1.83;;;22.70;99.90;;;;;;4980400;28;20517;-78
2022/08/07 01:26:25;;;;;;;3.40;2.22;;;22.60;99.90;;;;;;4980035;28;20100;-78
2022/08/07 01:28:54;;;;;;;5.05;2.08;;;22.60;99.90;;;;;;5001706;28;20049;-77
2022/08/07 01:31:31;;;;;;;3.60;1.98;;;22.50;99.90;;;;;;4962317;28;20057;-78
2022/08/07 01:34:01;;;;;;;6.60;2.00;;;22.40;99.90;;;;;;4962755;28;20521;-78
2022/08/07 01:36:35;;;;;;;4.18;2.30;;;22.40;99.90;;;;;;4980536;28;20105;-78
2022/08/07 01:39:08;;;;;;;4.97;1.90;;;22.40;99.90;;;;;;4979940;28;20105;-77
2022/08/07 01:41:36;;;;;;;5.13;1.90;;;22.40;99.90;;;;;;4980037;28;20057;-78
2022/08/07 01:44:05;;;;;;;5.75;2.00;;;22.30;99.90;;;;;;4979505;28;20420;-78
2022/08/07 01:46:35;;;;;;;5.07;1.63;;;22.30;99.90;;;;;;4997313;28;20050;-78
2022/08/07 01:49:03;;;;;;;4.60;2.45;;;22.40;99.90;;;;;;4979736;28;20046;-77
2022/08/07 01:51:32;;;;;;;9.15;1.90;;;22.40;99.90;;;;;;5002649;28;20065;-78
2022/08/07 01:54:06;;;;;;;3.65;1.73;;;22.50;99.90;;;;;;5010934;28;20440;-78
2022/08/07 01:56:40;;;;;;;5.25;2.00;;;22.50;99.90;;;;;;4998995;28;20050;-79
2022/08/07 01:59:14;;;;;;;6.28;2.42;;;22.50;99.90;;;;;;4988850;28;20061;-78
2022/08/07 02:01:46;;;;;;;5.80;2.33;;;22.60;99.90;;;;;;4979234;28;20506;-79
2022/08/07 02:04:25;;;;;;;4.43;2.10;;;22.50;99.90;;;;;;4978970;28;20112;-77
2022/08/07 02:06:57;;;;;;;2.53;1.80;;;22.30;99.90;;;;;;4978843;28;20054;-77
2022/08/07 02:09:29;;;;;;;5.82;2.08;;;22.30;99.90;;;;;;4979190;28;20058;-78
2022/08/07 02:11:57;;;;;;;2.72;1.95;;;22.30;99.90;;;;;;4979215;28;20078;-80
2022/08/07 02:14:27;;;;;;;3.85;2.05;;;22.30;99.90;;;;;;4978909;28;20137;-78
2022/08/07 02:16:56;;;;;;;9.93;2.78;;;22.30;99.90;;;;;;4979562;28;20038;-80
2022/08/07 02:19:24;;;;;;;3.30;1.80;;;22.20;99.90;;;;;;4997462;28;20038;-81
2022/08/07 02:21:54;;;;;;;7.13;2.20;;;22.20;99.90;;;;;;4980750;28;20050;-78
2022/08/07 02:24:23;;;;;;;6.53;2.33;;;22.20;99.90;;;;;;4980267;28;20076;-80
2022/08/07 02:26:53;;;;;;;8.52;2.33;;;22.20;99.90;;;;;;4980554;28;20050;-78
2022/08/07 02:29:21;;;;;;;6.32;2.40;;;22.20;99.90;;;;;;4989061;28;20045;-81
2022/08/07 02:31:49;;;;;;;5.57;2.30;;;22.10;99.90;;;;;;4999715;28;20070;-78
2022/08/07 02:34:17;;;;;;;2.88;1.90;;;22.10;99.90;;;;;;4994310;28;20046;-78
2022/08/07 02:36:52;;;;;;;4.07;1.98;;;22.10;99.90;;;;;;4978951;28;20050;-78
2022/08/07 02:39:21;;;;;;;6.07;2.30;;;22.20;99.90;;;;;;4978698;28;20046;-78
2022/08/07 02:41:50;;;;;;;3.67;2.38;;;22.20;99.90;;;;;;4996542;28;20050;-79
2022/08/07 02:44:21;;;;;;;5.25;1.85;;;22.20;99.90;;;;;;4978436;28;20042;-78
2022/08/07 02:46:49;;;;;;;3.60;2.40;;;22.30;99.90;;;;;;4978836;28;20077;-79
2022/08/07 02:49:18;;;;;;;5.38;2.22;;;22.30;99.90;;;;;;4979681;28;20043;-80
2022/08/07 02:51:47;;;;;;;3.22;2.40;;;22.30;99.90;;;;;;4985094;28;20057;-78
2022/08/07 02:54:16;;;;;;;6.65;2.28;;;22.30;99.90;;;;;;4985564;28;20047;-78
2022/08/07 02:56:46;;;;;;;3.63;1.92;;;22.30;99.90;;;;;;5006914;28;20117;-79
2022/08/07 02:59:18;;;;;;;7.07;2.20;;;22.20;99.90;;;;;;5006552;28;20077;-79
2022/08/07 03:01:48;;;;;;;8.27;2.97;;;22.30;99.90;;;;;;5004276;28;20390;-80
2022/08/07 03:04:17;;;;;;;3.80;2.50;;;22.20;99.90;;;;;;4997632;28;20038;-76
2022/08/07 03:06:46;;;;;;;5.88;2.33;;;22.20;99.90;;;;;;4987033;28;20046;-78
2022/08/07 03:09:15;;;;;;;6.82;2.15;;;22.20;99.90;;;;;;4978846;28;20517;-79
2022/08/07 03:11:43;;;;;;;3.35;2.40;;;22.20;99.90;;;;;;4995124;28;20050;-78
2022/08/07 03:14:10;;;;;;;5.57;2.72;;;22.20;99.90;;;;;;4977647;28;20042;-78
2022/08/07 03:16:39;;;;;;;4.80;2.50;;;22.30;99.90;;;;;;4995215;28;20038;-76
2022/08/07 03:19:09;;;;;;;4.63;2.58;;;22.30;99.90;;;;;;4977941;28;20042;-79
2022/08/07 03:21:37;;;;;;;3.53;2.60;;;22.30;99.90;;;;;;4978258;28;20055;-77
2022/08/07 03:24:06;;;;;;;3.22;2.53;;;22.30;99.90;;;;;;4977600;28;20042;-78
2022/08/07 03:26:35;;;;;;;5.13;2.83;;;22.30;99.90;;;;;;4978215;28;20493;-78
2022/08/07 03:29:08;;;;;;;7.95;2.60;;;22.40;99.90;;;;;;4983529;28;20044;-79
2022/08/07 03:31:37;;;;;;;8.18;2.75;;;22.40;99.90;;;;;;4997423;28;20050;-78
2022/08/07 03:34:08;;;;;;;6.03;2.67;;;22.30;99.90;;;;;;4987789;28;20060;-78
2022/08/07 03:36:37;;;;;;;4.55;2.30;;;22.30;99.90;;;;;;4995087;28;20042;-79
2022/08/07 03:39:08;;;;;;;5.05;2.70;;;22.40;99.90;;;;;;4977964;28;20429;-78
2022/08/07 03:41:38;;;;;;;4.72;2.55;;;22.40;99.90;;;;;;4989251;28;20027;-74
2022/08/07 03:44:06;;;;;;;8.63;6.85;;;22.40;99.90;;;;;;5001877;28;20030;-75
2022/08/07 03:46:36;;;;;;;6.63;4.20;;;22.50;99.90;;;;;;5017666;28;20145;-75
2022/08/07 03:49:04;;;;;;;6.40;3.05;;;22.50;99.90;;;;;;4981946;28;20046;-75
2022/08/07 03:51:39;;;;;;;8.55;3.38;;;22.50;99.90;;;;;;4977915;28;20053;-76
2022/08/07 03:54:07;;;;;;;12.88;2.88;;;22.60;99.90;;;;;;4977570;28;20417;-76
2022/08/07 03:56:36;;;;;;;7.75;2.65;;;22.60;99.90;;;;;;4977211;28;20085;-75
2022/08/07 03:59:06;;;;;;;6.75;2.70;;;22.60;99.90;;;;;;4977209;28;20046;-76
2022/08/07 04:01:36;;;;;;;6.13;2.90;;;22.60;99.90;;;;;;4976811;28;20050;-75
2022/08/07 04:04:03;;;;;;;6.90;3.42;;;22.50;99.90;;;;;;4977150;28;20568;-74
2022/08/07 04:06:32;;;;;;;11.77;3.15;;;22.50;99.90;;;;;;4980526;28;20046;-76
2022/08/07 04:09:02;;;;;;;5.50;2.72;;;22.50;99.90;;;;;;4980952;28;20042;-75
2022/08/07 04:11:30;;;;;;;10.93;3.63;;;22.60;99.90;;;;;;4981990;28;20046;-76
2022/08/07 04:13:59;;;;;;;8.95;3.45;;;22.60;99.90;;;;;;4982034;28;20520;-76
2022/08/07 04:16:28;;;;;;;5.32;2.85;;;22.70;99.90;;;;;;4989523;28;20054;-75
2022/08/07 04:18:56;;;;;;;10.25;4.97;;;22.70;99.90;;;;;;5010487;28;20034;-76
2022/08/07 04:21:24;;;;;;;7.45;3.78;;;22.70;99.90;;;;;;5008396;28;20054;-76
2022/08/07 04:23:53;;;;;;;6.10;4.40;;;22.70;99.90;;;;;;5001387;28;20113;-76
2022/08/07 04:26:22;;;;;;;4.60;2.83;;;22.70;99.90;;;;;;5011925;28;20101;-75
2022/08/07 04:28:50;;;;;;;3.40;2.17;;;22.70;99.90;;;;;;4983978;28;20049;-75
2022/08/07 04:31:18;;;;;;;5.07;3.10;;;22.70;99.90;;;;;;4980187;28;20050;-77
2022/08/07 04:33:47;;;;;;;5.95;3.08;;;22.70;99.90;;;;;;4980053;28;20042;-75
2022/08/07 04:36:14;;;;;;;7.80;3.20;;;22.70;99.90;;;;;;4980227;28;20051;-74
2022/08/07 04:38:44;;;;;;;6.53;3.25;;;22.70;99.90;;;;;;4980201;28;20461;-76
2022/08/07 04:41:13;;;;;;;5.63;3.35;;;22.70;99.90;;;;;;4980040;28;20490;-75
2022/08/07 04:43:46;;;;;;;8.38;3.15;;;22.70;99.90;;;;;;4979656;28;20051;-76
2022/08/07 04:46:23;;;;;;;5.85;3.80;;;22.70;99.90;;;;;;4979774;28;20141;-75
2022/08/07 04:49:00;;;;;;;8.75;3.10;;;22.70;99.90;;;;;;4973186;28;20046;-74
2022/08/07 04:51:35;;;;;;;8.70;3.55;;;22.80;99.90;;;;;;4979605;28;20149;-76
2022/08/07 04:54:12;;;;;;;7.40;3.72;;;22.80;99.90;;;;;;4997311;28;20062;-76
2022/08/07 04:56:47;;;;;;;6.75;3.30;;;22.80;99.90;;;;;;4997264;28;20529;-75
2022/08/07 04:59:25;;;;;;;5.07;3.20;;;22.90;99.90;;;;;;4980188;28;20062;-76
2022/08/07 05:02:03;;;;;;;5.20;3.13;;;22.90;99.90;;;;;;4972991;28;20088;-76
2022/08/07 05:04:40;;;;;;;9.25;3.45;;;22.90;99.90;;;;;;4979239;28;20058;-76
2022/08/07 05:07:11;;;;;;;;;;;22.90;99.90;;;;;;4980190;28;20050;-76
2022/08/07 05:09:43;;;;;;;6.25;3.03;;;22.90;99.90;;;;;;4997332;28;19925;-76
2022/08/07 05:12:14;;;;;;;8.45;3.08;;;22.80;99.90;;;;;;5001371;28;20110;-78
2022/08/07 05:14:45;;;;;;;10.23;3.70;;;22.70;99.90;;;;;;5001163;28;20115;-76
2022/08/07 05:17:18;;;;;;;6.80;2.60;;;22.80;99.90;;;;;;5000743;28;20042;-76
2022/08/07 05:19:50;;;;;;;6.13;4.03;;;22.70;99.90;;;;;;4979900;28;20062;-75
2022/08/07 05:22:21;;;;;;;3.92;2.63;;;22.70;99.90;;;;;;4996619;28;20074;-75
2022/08/07 05:24:51;;;;;;;7.90;3.35;;;22.70;99.90;;;;;;4979347;28;20046;-75
2022/08/07 05:27:21;;;;;;;7.80;3.47;;;22.70;99.90;;;;;;4979040;28;20096;-75
2022/08/07 05:29:51;;;;;;;18.48;4.53;;;22.90;99.90;;;;;;4990165;28;20110;-76
2022/08/07 05:32:23;;;;;;;7.60;2.80;;;22.90;99.90;;;;;;4998917;28;20519;-75
2022/08/07 05:34:52;;;;;;;8.23;2.90;;;23.00;99.90;;;;;;4999041;28;20053;-75
2022/08/07 05:37:20;;;;;;;9.63;2.97;;;23.00;99.90;;;;;;4998360;28;20054;-76
2022/08/07 05:39:56;;;;;;;6.45;2.88;;;23.00;99.90;;;;;;4998609;28;20107;-77
2022/08/07 05:42:24;;;;;;;4.90;2.38;;;23.10;99.90;;;;;;4981879;28;20077;-78
2022/08/07 05:44:55;;;;;;;8.13;2.60;;;23.20;99.90;;;;;;4979153;28;20386;-75
2022/08/07 05:47:23;;;;;;;4.82;2.83;;;23.30;99.90;;;;;;4978728;28;20073;-76
2022/08/07 05:49:52;;;;;;;7.35;3.45;;;23.30;99.90;;;;;;4996181;28;20038;-75
2022/08/07 05:52:22;;;;;;;6.85;3.20;;;23.40;99.90;;;;;;4978650;28;20137;-76
2022/08/07 05:54:52;;;;;;;5.00;2.53;;;23.30;99.90;;;;;;4983163;28;20132;-74
2022/08/07 05:57:21;;;;;;;5.28;3.00;;;23.30;99.90;;;;;;4998150;28;20421;-75
2022/08/07 05:59:49;;;;;;;6.05;3.90;;;23.30;99.90;;;;;;4990823;28;20050;-76
2022/08/07 06:02:19;;;;;;;7.68;4.28;;;23.20;99.90;;;;;;4978556;28;20056;-77
2022/08/07 06:04:53;;;;;;;5.57;3.08;;;23.20;99.90;;;;;;4978022;28;20042;-75
2022/08/07 06:07:21;;;;;;;7.78;3.42;;;23.30;99.90;;;;;;4978507;28;20053;-76
2022/08/07 06:09:50;;;;;;;4.05;2.95;;;23.30;99.90;;;;;;4978719;28;20061;-79
2022/08/07 06:12:18;;;;;;;7.13;3.60;;;23.30;99.90;;;;;;4978838;28;20158;-76
2022/08/07 06:14:47;;;;;;;5.18;2.60;;;23.40;99.90;;;;;;4978643;28;20061;-75
2022/08/07 06:17:15;;;;;;;4.43;2.80;;;23.50;99.90;;;;;;4986551;28;20128;-75
2022/08/07 06:19:44;;;;;;;5.50;2.97;;;23.50;99.90;;;;;;4999449;28;20095;-77
2022/08/07 06:22:12;;;;;;;5.82;3.20;;;23.60;99.90;;;;;;4998041;28;20100;-76
2022/08/07 06:24:40;;;;;;;6.05;3.50;;;23.60;99.90;;;;;;4999097;28;20100;-76
2022/08/07 06:27:07;;;;;;;5.93;3.63;;;23.60;99.90;;;;;;4997672;28;20425;-76
2022/08/07 06:29:35;;;;;;;6.72;4.00;;;23.80;99.90;;;;;;4994301;28;20052;-76
2022/08/07 06:32:03;;;;;;;6.35;3.47;;;23.90;99.90;;;;;;4997755;28;20045;-76
2022/08/07 06:34:31;;;;;;;7.10;3.10;;;24.00;99.90;;;;;;4997470;28;20050;-76
2022/08/07 06:37:01;;;;;;;7.80;2.60;;;23.90;99.90;;;;;;5015464;28;20038;-76
2022/08/07 06:39:33;;;;;;;9.23;3.85;;;24.10;99.90;;;;;;4998092;28;20417;-75
2022/08/07 06:42:06;;;;;;;5.15;3.08;;;24.10;99.90;;;;;;4986508;28;20057;-77
2022/08/07 06:44:57;;;;;;;7.15;3.35;;;24.20;99.90;;;;;;4987665;28;20100;-77
2022/08/07 06:47:25;;;;;;;6.65;3.20;;;24.30;99.90;;;;;;4978203;28;20097;-76
2022/08/07 06:49:52;;;;;;;8.43;2.97;;;24.30;99.90;;;;;;4978353;28;20080;-77
2022/08/07 06:52:24;;;;;;;7.50;3.25;;;24.30;99.90;;;;;;4978576;28;20462;-76
2022/08/07 06:54:53;;;;;;;5.25;2.65;;;24.50;99.90;;;;;;4995238;28;20042;-76
2022/08/07 06:57:23;;;;;;;5.20;2.72;;;24.50;99.90;;;;;;4978316;28;20084;-77
2022/08/07 06:59:51;;;;;;;5.25;3.10;;;24.50;99.90;;;;;;4978225;28;20133;-75
2022/08/07 07:02:22;;;;;;;4.28;2.72;;;24.40;99.90;;;;;;4978879;28;20042;-76
2022/08/07 07:04:50;;;;;;;4.82;2.90;;;24.40;99.90;;;;;;4997251;28;20452;-79
2022/08/07 07:07:22;;;;;;;6.50;3.10;;;24.30;99.90;;;;;;4984756;28;20104;-77
2022/08/07 07:09:51;;;;;;;6.75;2.97;;;24.30;99.90;;;;;;4981953;28;20069;-78
2022/08/07 07:12:26;;;;;;;11.77;3.65;;;24.30;99.90;;;;;;4982680;28;20097;-78
2022/08/07 07:15:00;;;;;;;7.00;4.28;;;24.30;99.90;;;;;;4999365;28;20108;-78
2022/08/07 07:17:35;;;;;;;13.65;3.95;;;24.70;99.90;;;;;;4997301;28;20070;-78
2022/08/07 07:20:09;;;;;;;5.40;3.60;;;25.30;99.90;;;;;;4985247;28;20034;-76
2022/08/07 07:22:39;;;;;;;8.57;3.30;;;25.90;99.90;;;;;;4999539;28;20453;-77
2022/08/07 07:25:08;;;;;;;6.32;3.40;;;25.90;99.90;;;;;;5000005;28;20047;-75
2022/08/07 07:27:40;;;;;;;6.88;2.80;;;25.90;99.90;;;;;;5004244;28;20062;-77
2022/08/07 07:30:08;;;;;;;9.93;3.08;;;26.20;99.90;;;;;;5011784;28;20046;-77
2022/08/07 07:32:39;;;;;;;7.22;3.42;;;26.40;99.90;;;;;;4995282;28;20137;-76
2022/08/07 07:35:09;;;;;;;9.68;2.85;;;26.50;99.90;;;;;;4995570;28;20085;-76
2022/08/07 07:37:41;;;;;;;7.28;3.80;;;26.30;99.90;;;;;;4996571;28;20464;-78
2022/08/07 07:40:14;;;;;;;7.53;4.15;;;26.50;99.90;;;;;;4981460;28;20046;-76
2022/08/07 07:42:43;;;;;;;6.65;3.72;;;26.50;99.90;;;;;;4982094;28;20054;-76
2022/08/07 07:45:12;;;;;;;4.07;3.00;;;26.50;99.90;;;;;;4999641;28;20520;-76
2022/08/07 07:47:43;;;;;;;5.25;3.03;;;26.40;99.90;;;;;;4999245;28;20482;-76
2022/08/07 07:50:13;;;;;;;5.95;4.10;;;26.50;99.90;;;;;;4999192;28;20087;-76
2022/08/07 07:52:45;;;;;;;6.15;3.83;;;26.60;99.90;;;;;;4999701;28;20046;-76
2022/08/07 07:55:14;;;;;;;6.93;3.50;;;26.70;99.90;;;;;;5006384;28;20045;-76
2022/08/07 07:57:42;;;;;;;7.60;4.20;;;27.00;99.90;;;;;;5019282;28;20038;-78
2022/08/07 08:00:12;;;;;;;5.25;3.50;;;27.30;99.90;;;;;;5019903;28;20494;-76
2022/08/07 08:02:41;;;;;;;4.75;3.50;;;27.20;99.90;;;;;;5022968;28;20061;-76
2022/08/07 08:05:10;;;;;;;6.40;3.70;;;27.00;99.90;;;;;;5008133;28;20077;-76
2022/08/07 08:07:40;;;;;;;6.97;4.30;;;26.70;99.90;;;;;;5004559;28;20046;-76
2022/08/07 08:10:10;;;;;;;6.05;3.78;;;26.20;99.90;;;;;;5005062;28;20040;-76
2022/08/07 08:12:39;;;;;;;8.00;3.50;;;26.30;99.90;;;;;;5001094;28;20097;-76
2022/08/07 08:15:07;;;;;;;6.93;4.38;;;26.40;99.90;;;;;;5000153;28;20088;-76
2022/08/07 08:17:36;;;;;;;8.27;4.00;;;26.20;99.90;;;;;;5010965;28;20433;-76
2022/08/07 08:20:06;;;;;;;7.25;3.90;;;26.50;99.90;;;;;;4999409;28;20049;-78
2022/08/07 08:28:15;;;;;;;8.27;3.58;;;27.00;99.90;;;;;;4981198;28;20057;-78
2022/08/07 08:30:45;;;;;;;5.90;3.33;;;27.00;99.90;;;;;;4999019;28;20078;-77
2022/08/07 08:33:19;;;;;;;;;;;27.20;99.90;;;;;;4998238;28;20092;-76
2022/08/07 08:35:49;;;;;;;7.10;3.60;;;27.50;99.90;;;;;;4980558;28;19926;-77
2022/08/07 08:38:21;;;;;;;6.43;3.55;;;27.50;99.90;;;;;;4998589;28;20125;-77
2022/08/07 08:40:56;;;;;;;6.68;3.78;;;27.10;99.90;;;;;;4989945;28;20038;-77
2022/08/07 08:43:33;;;;;;;5.15;4.18;;;27.00;99.90;;;;;;4995074;28;20109;-77
2022/08/07 08:46:08;;;;;;;7.50;4.47;;;27.50;99.90;;;;;;4992920;28;20042;-76
2022/08/07 08:48:40;;;;;;;7.88;4.68;;;27.60;99.90;;;;;;5012187;28;20078;-78
2022/08/07 08:51:16;;;;;;;7.72;5.32;;;28.00;99.90;;;;;;5002032;28;20577;-78
2022/08/07 08:53:47;;;;;;;;;;;28.40;99.90;;;;;;5006738;28;20537;-76
2022/08/07 08:56:24;;;;;;;12.70;7.40;;;28.30;99.90;;;;;;5015953;28;19929;-77
2022/08/07 08:58:56;;;;;;;9.43;7.32;;;28.40;99.90;;;;;;5001619;28;20030;-76
2022/08/07 09:01:31;;;;;;;11.95;7.07;;;28.50;99.90;;;;;;5003832;28;20050;-76
2022/08/07 09:04:07;;;;;;;14.15;6.88;;;28.50;99.90;;;;;;4980171;28;20093;-77
2022/08/07 09:06:40;;;;;;;;;;;28.80;99.90;;;;;;4962084;28;20429;-76
2022/08/07 09:09:31;;;;;;;11.15;6.95;;;28.70;99.90;;;;;;4962295;28;19953;-76
2022/08/07 09:12:12;;;;;;;8.93;5.22;;;28.80;99.90;;;;;;4979636;28;20058;-77
2022/08/07 09:14:49;;;;;;;15.55;9.02;;;28.70;99.90;;;;;;4982213;28;20107;-77
2022/08/07 09:17:31;;;;;;;10.40;7.35;;;28.60;99.90;;;;;;5002796;28;20121;-76
2022/08/07 09:20:12;;;;;;;7.13;5.70;;;28.90;99.90;;;;;;4998639;28;20497;-77
2022/08/07 09:22:55;;;;;;;10.88;5.95;;;29.30;99.90;;;;;;5004618;28;20045;-76
2022/08/07 09:25:26;;;;;;;9.77;6.40;;;29.50;99.90;;;;;;4999792;28;20042;-75
2022/08/07 09:28:03;;;;;;;12.43;5.10;;;29.50;99.90;;;;;;4987059;28;20050;-76
2022/08/07 09:30:46;;;;;;;7.32;5.05;;;29.50;99.90;;;;;;5015133;28;20038;-76
2022/08/07 09:33:25;;;;;;;7.53;6.05;;;29.90;99.90;;;;;;5017423;28;20560;-77
2022/08/07 09:35:59;;;;;;;6.75;6.05;;;30.10;99.90;;;;;;4999091;28;20042;-76
2022/08/07 09:38:45;;;;;;;10.98;7.47;;;29.50;99.90;;;;;;4998347;28;20096;-76
2022/08/07 09:41:23;;;;;;;11.70;8.65;;;29.50;99.90;;;;;;4990884;28;20049;-77
2022/08/07 09:43:59;;;;;;;10.48;7.97;;;29.40;99.90;;;;;;4980683;28;20054;-77
2022/08/07 09:46:45;;;;;;;9.40;7.30;;;28.90;99.90;;;;;;5048325;23;20045;-75
2022/08/07 09:49:26;;;;;;;5.22;4.72;;;29.30;99.90;;;;;;5058049;28;20040;-74
2022/08/07 09:52:04;;;;;;;6.03;4.93;;;29.30;99.90;;;;;;5054265;28;20041;-75
2022/08/07 09:54:39;;;;;;;7.43;6.18;;;29.20;99.90;;;;;;5034167;28;20045;-76
2022/08/07 09:58:07;;;;;;;13.38;9.75;;;29.60;99.90;;;;;;5081585;28;20071;-75
2022/08/07 10:00:51;;;;;;;10.60;8.38;;;29.90;99.90;;;;;;5079794;28;20414;-74
2022/08/07 10:04:03;;;;;;;11.82;7.88;;;30.00;99.90;;;;;;5064471;28;20116;-74
2022/08/07 10:07:02;;;;;;;10.60;6.30;;;29.40;99.90;;;;;;5073361;28;20041;-73
2022/08/07 10:09:54;;;;;;;6.05;4.90;;;28.80;99.90;;;;;;5062739;28;20110;-75
2022/08/07 10:12:41;;;;;;;7.00;6.10;;;28.90;99.90;;;;;;5058397;28;20059;-75
2022/08/07 10:15:35;;;;;;;8.90;6.75;;;28.80;99.90;;;;;;5073345;28;20051;-75
2022/08/07 10:18:22;;;;;;;7.72;6.25;;;29.00;99.90;;;;;;5080892;28;20559;-75
2022/08/07 10:21:06;;;;;;;11.10;6.13;;;29.30;99.90;;;;;;5076534;28;20078;-75
2022/08/07 10:24:14;;;;;;;11.32;6.13;;;29.30;99.90;;;;;;5075012;28;20049;-76
2022/08/07 10:26:55;;;;;;;8.40;6.18;;;28.80;99.90;;;;;;5074110;28;20114;-75
2022/08/07 10:29:47;;;;;;;9.90;6.18;;;28.80;99.90;;;;;;5075142;28;20125;-75
2022/08/07 10:32:32;;;;;;;8.38;6.70;;;28.60;99.90;;;;;;5074621;28;20078;-75
2022/08/07 10:35:12;;;;;;;7.93;5.63;;;28.60;99.90;;;;;;5073892;28;20483;-75
2022/08/07 10:37:49;;;;;;;10.50;6.75;;;28.60;99.90;;;;;;5074412;28;20040;-75
2022/08/07 10:40:22;;;;;;;6.70;6.00;;;28.60;99.90;;;;;;5074192;28;20048;-76
2022/08/07 10:43:00;;;;;;;9.80;5.88;;;28.70;99.90;;;;;;5073315;28;20037;-76
2022/08/07 10:45:33;;;;;;;8.40;5.93;;;28.90;99.90;;;;;;5073260;28;20412;-75
2022/08/07 10:48:14;;;;;;;14.40;7.28;;;29.10;99.90;;;;;;5055929;28;20507;-76
2022/08/07 10:50:48;;;;;;;16.63;12.30;;;29.40;99.90;;;;;;5073473;28;20066;-75
2022/08/07 10:53:26;;;;;;;11.27;7.65;;;29.60;99.90;;;;;;5073748;28;20051;-76
2022/08/07 10:56:03;;;;;;;15.35;10.55;;;29.50;99.90;;;;;;5055287;28;20106;-75
2022/08/07 10:58:43;;;;;;;12.10;7.97;;;29.80;99.90;;;;;;5073767;28;20036;-75
2022/08/07 11:01:25;;;;;;;11.48;9.20;;;29.90;99.90;;;;;;5073393;28;20047;-74
2022/08/07 11:04:01;;;;;;;10.38;6.85;;;29.70;99.90;;;;;;5073352;28;20554;-75
2022/08/07 11:06:39;;;;;;;10.05;6.88;;;29.50;99.90;;;;;;5054732;28;20048;-76
2022/08/07 11:09:13;;;;;;;9.25;6.60;;;28.90;99.90;;;;;;5037880;28;20500;-76
2022/08/07 11:11:47;;;;;;;7.40;6.70;;;28.80;99.90;;;;;;5080311;28;20364;-75
2022/08/07 11:14:21;;;;;;;8.27;6.43;;;28.80;99.90;;;;;;5075021;28;20062;-75
2022/08/07 11:16:52;;;;;;;8.07;6.53;;;28.90;99.90;;;;;;5076925;28;20048;-75
2022/08/07 11:19:29;;;;;;;7.45;6.68;;;28.80;99.90;;;;;;5073161;28;20039;-75
2022/08/07 11:22:06;;;;;;;12.20;7.68;;;28.70;99.90;;;;;;5035339;28;20550;-76
2022/08/07 11:24:41;;;;;;;7.10;6.10;;;28.90;99.90;;;;;;5052879;28;20455;-74
2022/08/07 11:27:16;;;;;;;6.63;5.90;;;28.80;99.90;;;;;;5065006;28;20483;-75
2022/08/07 11:29:51;;;;;;;11.95;7.90;;;28.80;99.90;;;;;;5062040;28;20321;-74
2022/08/07 11:32:22;;;;;;;;;;;28.90;99.90;;;;;;5072701;28;20041;-75
2022/08/07 11:34:55;;;;;;;10.38;6.72;;;28.90;99.90;;;;;;5054087;28;20299;-74
2022/08/07 11:37:50;;;;;;;9.55;6.38;;;28.80;99.90;;;;;;5072759;28;20032;-74
2022/08/07 11:40:30;;;;;;;7.57;6.60;;;28.80;99.90;;;;;;5071544;28;20040;-75
2022/08/07 11:43:06;;;;;;;7.32;6.47;;;29.00;99.90;;;;;;5054040;28;20131;-75
2022/08/07 11:45:45;;;;;;;10.63;6.78;;;28.80;99.90;;;;;;5053974;28;20056;-75
2022/08/07 11:48:54;;;;;;;10.35;6.53;;;29.00;99.90;;;;;;5071975;28;20040;-75
2022/08/07 11:51:39;;;;;;;11.35;8.52;;;29.00;99.90;;;;;;5070264;28;20033;-74
2022/08/07 11:54:25;;;;;;;11.48;8.80;;;29.10;99.90;;;;;;5071080;28;20040;-75
2022/08/07 11:57:05;;;;;;;24.95;21.23;;;29.10;99.90;;;;;;5052801;28;20041;-74
2022/08/07 11:59:53;;;;;;;7.70;5.93;;;29.30;99.90;;;;;;5043080;28;20155;-75
2022/08/07 12:02:36;;;;;;;9.85;7.65;;;29.70;99.90;;;;;;5074470;28;20055;-79
2022/08/07 12:05:16;;;;;;;9.60;7.70;;;29.90;99.90;;;;;;5070227;28;20116;-78
2022/08/07 12:07:53;;;;;;;13.23;11.57;;;29.70;99.90;;;;;;5071011;28;20044;-74
2022/08/07 12:10:27;;;;;;;24.08;19.42;;;29.80;99.90;;;;;;5072717;28;20462;-75
2022/08/07 12:13:02;;;;;;;9.95;7.65;;;29.20;99.90;;;;;;5072003;28;20040;-75
2022/08/07 12:15:34;;;;;;;8.73;6.85;;;29.20;99.90;;;;;;5072753;28;20036;-74
2022/08/07 12:18:05;;;;;;;9.27;7.22;;;29.50;99.90;;;;;;5055859;28;20044;-74
2022/08/07 12:20:36;;;;;;;8.27;6.32;;;29.70;99.90;;;;;;5072985;28;20033;-75
2022/08/07 12:23:19;;;;;;;9.65;6.53;;;30.00;99.90;;;;;;5072885;28;20101;-74
2022/08/07 12:25:55;;;;;;;10.50;6.78;;;30.20;99.90;;;;;;5093405;28;20067;-74
2022/08/07 12:28:28;;;;;;;9.85;6.90;;;30.30;99.90;;;;;;5096603;28;20067;-75
2022/08/07 12:31:08;;;;;;;13.65;6.90;;;30.40;99.90;;;;;;5056216;28;20068;-75
2022/08/07 12:33:36;;;;;;;10.93;6.82;;;30.40;99.90;;;;;;5055757;28;20045;-74
2022/08/07 12:36:06;;;;;;;10.82;7.25;;;30.60;99.90;;;;;;5065154;28;20058;-73
2022/08/07 12:38:35;;;;;;;6.82;5.80;;;30.50;99.90;;;;;;5079933;28;20040;-73
2022/08/07 12:41:05;;;;;;;7.35;6.55;;;30.60;99.90;;;;;;5089017;28;20036;-74
2022/08/07 12:43:36;;;;;;;7.40;6.50;;;30.80;99.90;;;;;;5080415;28;20458;-74
2022/08/07 12:46:13;;;;;;;7.95;7.00;;;30.80;99.90;;;;;;5058622;28;20056;-74
2022/08/07 12:48:51;;;;;;;9.18;7.60;;;30.50;99.90;;;;;;5075493;28;20090;-75
2022/08/07 12:51:21;;;;;;;12.82;10.40;;;30.40;99.90;;;;;;5073790;28;20063;-74
2022/08/07 12:53:53;;;;;;;8.70;6.78;;;30.60;99.90;;;;;;5054395;28;20098;-75
2022/08/07 12:56:29;;;;;;;9.20;7.32;;;30.70;99.90;;;;;;5054195;28;20059;-75
2022/08/07 12:58:58;;;;;;;10.93;8.23;;;31.00;99.90;;;;;;5059700;28;20195;-75
2022/08/07 13:01:44;;;;;;;11.48;10.15;;;31.10;99.90;;;;;;5075614;28;20041;-75
2022/08/07 13:04:44;;;;;;;10.80;8.93;;;31.30;99.90;;;;;;5076494;28;20090;-74
2022/08/07 13:07:39;;;;;;;9.50;6.35;;;31.10;99.90;;;;;;5043284;28;20056;-76
2022/08/07 13:10:30;;;;;;;7.93;6.72;;;30.60;99.90;;;;;;5079076;28;20478;-75
2022/08/07 13:13:17;;;;;;;6.35;5.72;;;30.30;99.90;;;;;;5075826;28;20094;-77
2022/08/07 13:15:56;;;;;;;6.30;5.68;;;30.00;99.90;;;;;;5076939;28;20480;-75
2022/08/07 13:18:33;;;;;;;7.95;6.22;;;29.60;99.90;;;;;;5077001;28;20068;-74
2022/08/07 13:21:06;;;;;;;8.45;5.85;;;29.70;99.90;;;;;;5076692;28;20493;-75
2022/08/07 13:23:43;;;;;;;7.78;5.93;;;29.70;99.90;;;;;;5077100;28;20051;-76